createdAt,value
2018-05-27T00:02:01.404Z,87.10
2018-05-27T00:04:29.725Z,87.70
2018-05-27T00:06:58.042Z,88.60
2018-05-27T00:09:26.353Z,87.90
2018-05-27T00:11:54.637Z,87.70
2018-05-27T00:14:23.165Z,88.10
2018-05-27T00:16:51.449Z,88.10
2018-05-27T00:19:19.737Z,88.30
2018-05-27T00:21:48.633Z,88.50
2018-05-27T00:24:17.717Z,89.20
2018-05-27T00:26:46.091Z,89.20
2018-05-27T00:29:14.819Z,89.20
2018-05-27T00:31:43.345Z,89.30
2018-05-27T00:34:11.730Z,89.10
2018-05-27T00:36:40.066Z,89.00
2018-05-27T00:39:09.121Z,89.30
2018-05-27T00:41:37.409Z,89.30
2018-05-27T00:44:05.728Z,88.80
2018-05-27T00:46:34.016Z,88.30
2018-05-27T00:49:02.444Z,88.20
2018-05-27T00:51:30.750Z,88.70
2018-05-27T00:53:59.870Z,90.00
2018-05-27T00:56:28.198Z,89.90
2018-05-27T00:58:56.497Z,90.10
2018-05-27T01:01:24.826Z,90.30
2018-05-27T01:03:53.916Z,90.70
2018-05-27T01:06:22.207Z,90.60
2018-05-27T01:08:50.492Z,90.80
2018-05-27T01:11:18.826Z,90.70
2018-05-27T01:13:47.198Z,91.10
2018-05-27T01:16:16.426Z,90.90
2018-05-27T01:18:44.949Z,90.90
2018-05-27T01:21:13.456Z,91.00
2018-05-27T01:23:42.705Z,91.50
2018-05-27T01:26:12.538Z,91.40
2018-05-27T01:28:42.045Z,91.10
2018-05-27T01:31:10.391Z,91.10
2018-05-27T01:33:38.969Z,91.50
2018-05-27T01:36:07.292Z,91.40
2018-05-27T01:38:35.873Z,91.40
2018-05-27T01:41:04.374Z,91.90
2018-05-27T01:43:32.802Z,91.80
2018-05-27T01:46:01.169Z,92.10
2018-05-27T01:48:29.465Z,92.00
2018-05-27T01:50:57.801Z,92.10
2018-05-27T01:53:26.133Z,92.10
2018-05-27T01:55:54.475Z,92.30
2018-05-27T01:58:23.549Z,92.40
2018-05-27T02:00:52.980Z,92.40
2018-05-27T02:03:21.269Z,92.70
2018-05-27T02:05:49.623Z,92.90
2018-05-27T02:08:18.366Z,92.90
2018-05-27T02:10:47.756Z,93.20
2018-05-27T02:13:16.521Z,93.20
2018-05-27T02:15:44.985Z,93.20
2018-05-27T02:18:13.658Z,93.10
2018-05-27T02:20:42.153Z,92.90
2018-05-27T02:23:10.798Z,92.80
2018-05-27T02:25:39.112Z,93.00
2018-05-27T02:28:07.449Z,92.70
2018-05-27T02:30:36.043Z,92.80
2018-05-27T02:33:04.415Z,92.90
2018-05-27T02:35:33.696Z,93.90
2018-05-27T02:38:02.028Z,93.60
2018-05-27T02:40:31.423Z,94.20
2018-05-27T02:42:59.724Z,94.20
2018-05-27T02:45:28.022Z,94.80
2018-05-27T02:47:56.612Z,94.80
2018-05-27T02:50:24.915Z,94.60
2018-05-27T02:52:53.209Z,94.60
2018-05-27T02:55:21.545Z,94.80
2018-05-27T02:57:49.965Z,95.20
2018-05-27T03:00:19.334Z,95.30
2018-05-27T03:02:48.792Z,95.00
2018-05-27T03:05:17.322Z,94.90
2018-05-27T03:07:45.954Z,95.00
2018-05-27T03:10:14.606Z,95.10
2018-05-27T03:12:43.101Z,95.30
2018-05-27T03:15:12.786Z,95.50
2018-05-27T03:17:41.189Z,95.50
2018-05-27T03:20:10.373Z,95.80
2018-05-27T03:22:38.730Z,95.80
2018-05-27T03:25:07.794Z,95.70
2018-05-27T03:27:36.126Z,95.70
2018-05-27T03:30:04.679Z,96.00
2018-05-27T03:32:33.097Z,96.00
2018-05-27T03:35:01.478Z,95.80
2018-05-27T03:37:29.858Z,95.50
2018-05-27T03:39:58.953Z,95.60
2018-05-27T03:42:27.258Z,95.60
2018-05-27T03:44:55.589Z,95.70
2018-05-27T03:47:24.659Z,95.70
2018-05-27T03:49:52.959Z,95.70
2018-05-27T03:52:21.592Z,96.10
2018-05-27T03:54:49.898Z,96.10
2018-05-27T03:57:18.362Z,96.00
2018-05-27T03:59:46.820Z,95.80
2018-05-27T04:02:15.481Z,95.20
2018-05-27T04:04:56.530Z,94.80
2018-05-27T04:07:36.741Z,95.10
2018-05-27T04:10:05.837Z,95.10
2018-05-27T04:12:34.161Z,95.40
2018-05-27T04:15:03.274Z,95.70
2018-05-27T04:17:32.485Z,96.00
2018-05-27T04:20:00.985Z,95.90
2018-05-27T04:22:30.302Z,96.50
2018-05-27T04:24:58.592Z,96.20
2018-05-27T04:27:26.885Z,95.80
2018-05-27T04:29:55.515Z,96.00
2018-05-27T04:32:23.805Z,96.00
2018-05-27T04:34:52.104Z,95.90
2018-05-27T04:37:20.420Z,95.90
2018-05-27T04:39:49.127Z,96.10
2018-05-27T04:42:17.622Z,95.80
2018-05-27T04:44:46.150Z,95.30
2018-05-27T04:47:14.619Z,94.70
2018-05-27T04:49:43.214Z,93.90
2018-05-27T04:52:11.686Z,93.50
2018-05-27T04:54:40.001Z,93.50
2018-05-27T04:57:08.332Z,93.40
2018-05-27T04:59:36.621Z,93.00
2018-05-27T05:02:05.006Z,93.10
2018-05-27T05:04:34.073Z,93.40
2018-05-27T05:07:02.581Z,93.40
2018-05-27T05:09:30.932Z,93.30
2018-05-27T05:11:59.253Z,93.10
2018-05-27T05:14:27.580Z,93.30
2018-05-27T05:16:55.876Z,93.80
2018-05-27T05:19:24.168Z,94.20
2018-05-27T05:21:52.498Z,93.70
2018-05-27T05:24:20.802Z,93.50
2018-05-27T05:26:49.119Z,93.40
2018-05-27T05:29:17.447Z,93.60
2018-05-27T05:31:46.528Z,93.80
2018-05-27T05:34:15.178Z,93.80
2018-05-27T05:36:43.514Z,94.00
2018-05-27T05:39:11.897Z,93.80
2018-05-27T05:41:40.233Z,93.70
2018-05-27T05:44:08.557Z,93.00
2018-05-27T05:46:36.893Z,92.80
2018-05-27T05:49:05.963Z,92.50
2018-05-27T05:51:34.258Z,92.20
2018-05-27T05:54:02.589Z,91.50
2018-05-27T05:56:30.889Z,91.00
2018-05-27T05:58:59.194Z,90.40
2018-05-27T06:01:27.721Z,90.40
2018-05-27T06:03:56.036Z,90.00
2018-05-27T06:06:25.102Z,90.10
2018-05-27T06:08:53.430Z,90.10
2018-05-27T06:11:21.737Z,90.20
2018-05-27T06:13:50.020Z,89.60
2018-05-27T06:16:18.357Z,89.00
2018-05-27T06:18:47.430Z,86.90
2018-05-27T06:21:16.565Z,85.40
2018-05-27T06:23:44.908Z,84.80
2018-05-27T06:26:13.242Z,85.70
2018-05-27T06:28:41.561Z,83.50
2018-05-27T06:31:10.065Z,83.00
2018-05-27T06:33:38.376Z,82.30
2018-05-27T06:36:06.673Z,81.20
2018-05-27T06:38:35.033Z,82.00
2018-05-27T06:41:03.327Z,80.40
2018-05-27T06:43:32.393Z,79.50
2018-05-27T06:46:01.494Z,79.10
2018-05-27T06:48:29.833Z,79.10
2018-05-27T06:50:58.129Z,77.90
2018-05-27T06:53:26.425Z,78.90
2018-05-27T06:55:54.765Z,79.20
2018-05-27T06:58:23.054Z,78.00
2018-05-27T07:00:51.413Z,75.00
2018-05-27T07:03:19.741Z,74.90
2018-05-27T07:05:48.028Z,74.40
2018-05-27T07:08:16.381Z,75.40
2018-05-27T07:10:45.486Z,75.40
2018-05-27T07:13:13.853Z,75.40
2018-05-27T07:15:42.238Z,74.90
2018-05-27T07:18:10.785Z,72.90
2018-05-27T07:20:39.094Z,73.00
2018-05-27T07:23:07.398Z,71.80
2018-05-27T07:25:35.725Z,73.20
2018-05-27T07:28:05.110Z,72.10
2018-05-27T07:30:33.401Z,72.00
2018-05-27T07:33:01.698Z,71.50
2018-05-27T07:35:30.047Z,70.50
2018-05-27T07:37:58.377Z,72.40
2018-05-27T07:40:26.709Z,69.50
2018-05-27T07:42:55.006Z,70.10
2018-05-27T07:45:23.325Z,69.50
2018-05-27T07:47:51.932Z,69.50
2018-05-27T07:50:20.226Z,67.60
2018-05-27T07:52:48.512Z,68.10
2018-05-27T07:55:16.881Z,67.60
2018-05-27T07:57:45.972Z,67.60
2018-05-27T08:00:14.296Z,67.50
2018-05-27T08:02:42.702Z,67.30
2018-05-27T08:05:11.828Z,67.70
2018-05-27T08:07:40.161Z,67.70
2018-05-27T08:10:08.491Z,67.30
2018-05-27T08:12:36.780Z,66.50
2018-05-27T08:15:05.205Z,66.50
2018-05-27T08:17:33.492Z,68.10
2018-05-27T08:20:01.793Z,67.00
2018-05-27T08:22:30.126Z,67.50
2018-05-27T08:24:59.218Z,66.00
2018-05-27T08:27:27.512Z,65.20
2018-05-27T08:29:55.850Z,65.30
2018-05-27T08:32:24.194Z,63.40
2018-05-27T08:34:52.740Z,64.00
2018-05-27T08:37:21.020Z,67.20
2018-05-27T08:39:49.314Z,66.30
2018-05-27T08:42:17.636Z,65.90
2018-05-27T08:44:45.985Z,64.70
2018-05-27T08:47:15.101Z,65.00
2018-05-27T08:49:44.190Z,66.90
2018-05-27T08:52:12.519Z,66.90
2018-05-27T08:54:41.630Z,66.30
2018-05-27T08:57:10.741Z,64.80
2018-05-27T08:59:39.025Z,64.80
2018-05-27T09:02:07.313Z,64.80
2018-05-27T09:04:35.634Z,62.70
2018-05-27T09:07:03.922Z,63.70
2018-05-27T09:09:32.256Z,66.90
2018-05-27T09:12:00.560Z,63.50
2018-05-27T09:14:28.854Z,62.20
2018-05-27T09:16:57.168Z,62.60
2018-05-27T09:19:25.463Z,63.60
2018-05-27T09:21:53.785Z,61.10
2018-05-27T09:24:22.846Z,61.80
2018-05-27T09:26:51.172Z,61.70
2018-05-27T09:29:19.674Z,62.10
2018-05-27T09:31:47.967Z,60.40
2018-05-27T09:34:16.289Z,61.40
2018-05-27T09:36:44.649Z,59.40
2018-05-27T09:39:13.156Z,60.80
2018-05-27T09:41:41.502Z,59.20
2018-05-27T09:44:09.789Z,59.90
2018-05-27T09:46:38.110Z,58.30
2018-05-27T09:49:06.397Z,58.60
2018-05-27T09:51:34.709Z,58.00
2018-05-27T09:54:02.998Z,59.10
2018-05-27T09:56:31.324Z,58.20
2018-05-27T09:58:59.856Z,56.30
2018-05-27T10:01:29.257Z,56.90
2018-05-27T10:03:57.543Z,56.80
2018-05-27T10:06:25.831Z,59.10
2018-05-27T10:08:54.152Z,57.30
2018-05-27T10:11:22.438Z,56.90
2018-05-27T10:13:50.758Z,57.40
2018-05-27T10:16:19.049Z,56.10
2018-05-27T10:18:47.564Z,57.10
2018-05-27T10:21:15.862Z,55.30
2018-05-27T10:23:44.174Z,55.70
2018-05-27T10:26:12.555Z,55.30
2018-05-27T10:28:40.918Z,53.40
2018-05-27T10:31:09.255Z,52.50
2018-05-27T10:33:37.543Z,52.00
2018-05-27T10:36:06.073Z,50.10
2018-05-27T10:38:34.352Z,51.40
2018-05-27T10:41:02.632Z,51.80
2018-05-27T10:43:31.732Z,51.20
2018-05-27T10:46:00.039Z,51.20
2018-05-27T10:48:28.352Z,51.30
2018-05-27T10:50:57.414Z,50.80
2018-05-27T10:53:25.705Z,50.80
2018-05-27T10:55:54.025Z,51.00
2018-05-27T10:58:23.078Z,51.10
2018-05-27T11:00:51.397Z,51.20
2018-05-27T11:03:21.463Z,49.60
2018-05-27T11:05:49.805Z,49.60
2018-05-27T11:08:18.050Z,49.90
2018-05-27T11:10:47.174Z,50.50
2018-05-27T11:13:16.285Z,51.70
2018-05-27T11:15:45.410Z,49.30
2018-05-27T11:18:14.561Z,47.40
2018-05-27T11:20:42.958Z,47.30
2018-05-27T11:23:11.838Z,45.10
2018-05-27T11:25:40.946Z,47.60
2018-05-27T11:28:09.283Z,47.60
2018-05-27T11:30:37.606Z,46.30
2018-05-27T11:33:05.902Z,45.80
2018-05-27T11:35:34.246Z,46.60
2018-05-27T11:38:02.528Z,48.00
2018-05-27T11:40:31.781Z,46.80
2018-05-27T11:43:00.142Z,45.90
2018-05-27T11:45:28.423Z,47.00
2018-05-27T11:47:56.709Z,47.80
2018-05-27T11:50:25.797Z,44.90
2018-05-27T11:52:54.108Z,44.90
2018-05-27T11:55:22.388Z,44.20
2018-05-27T11:57:50.821Z,43.50
2018-05-27T12:00:19.197Z,43.60
2018-05-27T12:02:47.570Z,42.60
2018-05-27T12:05:15.997Z,44.50
2018-05-27T12:07:44.351Z,43.70
2018-05-27T12:10:12.745Z,44.90
2018-05-27T12:12:41.972Z,46.10
2018-05-27T12:15:10.739Z,46.10
2018-05-27T12:17:39.065Z,45.70
2018-05-27T12:20:07.392Z,48.00
2018-05-27T12:22:36.476Z,47.70
2018-05-27T12:25:04.765Z,47.70
2018-05-27T12:27:33.044Z,48.60
2018-05-27T12:30:01.393Z,49.00
2018-05-27T12:32:29.758Z,49.00
2018-05-27T12:34:58.101Z,47.70
2018-05-27T12:37:26.380Z,48.10
2018-05-27T12:39:54.677Z,46.30
2018-05-27T12:42:23.006Z,47.80
2018-05-27T12:44:51.294Z,46.40
2018-05-27T12:47:19.572Z,45.10
2018-05-27T12:49:47.948Z,44.80
2018-05-27T12:52:17.156Z,47.30
2018-05-27T12:54:46.280Z,49.70
2018-05-27T12:57:15.482Z,51.90
2018-05-27T12:59:43.888Z,52.00
2018-05-27T13:02:12.229Z,52.90
2018-05-27T13:04:40.578Z,56.90
2018-05-27T13:07:08.900Z,64.60
2018-05-27T13:09:37.212Z,66.40
2018-05-27T13:12:06.302Z,71.70
2018-05-27T13:14:34.620Z,71.70
2018-05-27T13:17:02.977Z,72.00
2018-05-27T13:19:31.301Z,73.30
2018-05-27T13:21:59.605Z,68.90
2018-05-27T13:24:27.944Z,67.90
2018-05-27T13:26:56.992Z,69.20
2018-05-27T13:29:25.273Z,69.20
2018-05-27T13:31:54.358Z,69.90
2018-05-27T13:34:22.682Z,69.90
2018-05-27T13:36:50.961Z,69.80
2018-05-27T13:39:19.240Z,67.80
2018-05-27T13:41:47.638Z,71.30
2018-05-27T13:44:16.157Z,74.70
2018-05-27T13:46:44.741Z,75.70
2018-05-27T13:49:13.179Z,75.00
2018-05-27T13:51:41.521Z,73.10
2018-05-27T13:54:10.600Z,69.80
2018-05-27T13:56:38.903Z,69.80
2018-05-27T13:59:07.504Z,69.60
2018-05-27T14:01:35.809Z,71.70
2018-05-27T14:04:04.092Z,70.40
2018-05-27T14:06:32.474Z,69.10
2018-05-27T14:09:00.821Z,66.10
2018-05-27T14:11:29.142Z,64.70
2018-05-27T14:13:57.433Z,64.10
2018-05-27T14:16:25.925Z,59.40
2018-05-27T14:18:54.208Z,60.90
2018-05-27T14:21:22.487Z,60.00
2018-05-27T14:23:50.818Z,57.90
2018-05-27T14:26:19.110Z,59.30
2018-05-27T14:28:47.424Z,57.40
2018-05-27T14:31:15.940Z,58.10
2018-05-27T14:33:44.340Z,58.50
2018-05-27T14:36:12.735Z,58.20
2018-05-27T14:38:41.386Z,58.10
2018-05-27T14:41:09.676Z,58.30
2018-05-27T14:43:37.966Z,59.60
2018-05-27T14:46:06.289Z,59.40
2018-05-27T14:48:34.568Z,59.00
2018-05-27T14:51:02.887Z,58.30
2018-05-27T14:53:31.313Z,57.50
2018-05-27T14:56:00.442Z,57.30
2018-05-27T14:58:30.073Z,57.40
2018-05-27T15:00:59.137Z,58.60
2018-05-27T15:03:28.196Z,59.20
2018-05-27T15:05:56.531Z,59.20
2018-05-27T15:08:24.813Z,60.00
2018-05-27T15:10:53.865Z,60.50
2018-05-27T15:13:22.180Z,60.50
2018-05-27T15:15:50.537Z,61.30
2018-05-27T15:18:18.818Z,62.10
2018-05-27T15:20:47.906Z,63.20
2018-05-27T15:23:17.372Z,63.90
2018-05-27T15:25:45.876Z,64.40
2018-05-27T15:28:14.195Z,64.20
2018-05-27T15:30:42.612Z,63.70
2018-05-27T15:33:12.075Z,61.00
2018-05-27T15:35:40.404Z,61.00
2018-05-27T15:38:08.818Z,59.50
2018-05-27T15:40:38.201Z,54.70
2018-05-27T15:43:06.478Z,55.10
2018-05-27T15:45:34.790Z,56.70
2018-05-27T15:48:03.105Z,57.30
2018-05-27T15:50:31.445Z,58.90
2018-05-27T15:52:59.813Z,60.20
2018-05-27T15:55:28.202Z,59.30
2018-05-27T15:57:56.529Z,58.00
2018-05-27T16:00:24.812Z,57.10
2018-05-27T16:02:53.348Z,58.30
2018-05-27T16:05:21.644Z,59.00
2018-05-27T16:07:49.923Z,60.70
2018-05-27T16:10:18.232Z,62.50
2018-05-27T16:12:46.553Z,63.40
2018-05-27T16:15:15.188Z,64.00
2018-05-27T16:17:43.481Z,65.10
2018-05-27T16:20:11.870Z,66.30
2018-05-27T16:22:41.002Z,67.20
2018-05-27T16:25:10.121Z,67.80
2018-05-27T16:27:38.406Z,67.70
2018-05-27T16:30:06.730Z,68.10
2018-05-27T16:32:35.008Z,68.40
2018-05-27T16:35:03.358Z,67.90
2018-05-27T16:37:32.445Z,67.80
2018-05-27T16:40:00.775Z,67.70
2018-05-27T16:42:29.833Z,67.00
2018-05-27T16:44:58.174Z,67.00
2018-05-27T16:47:26.450Z,67.00
2018-05-27T16:49:54.741Z,65.70
2018-05-27T16:52:23.057Z,67.60
2018-05-27T16:54:51.338Z,68.00
2018-05-27T16:57:19.659Z,67.70
2018-05-27T16:59:48.000Z,68.00
2018-05-27T17:02:16.365Z,68.30
2018-05-27T17:04:44.825Z,68.60
2018-05-27T17:07:13.211Z,69.00
2018-05-27T17:09:42.422Z,69.80
2018-05-27T17:12:10.714Z,69.70
2018-05-27T17:14:39.061Z,70.00
2018-05-27T17:17:08.120Z,71.10
2018-05-27T17:19:36.437Z,71.10
2018-05-27T17:22:04.754Z,71.20
2018-05-27T17:24:33.043Z,70.60
2018-05-27T17:27:01.359Z,70.70
2018-05-27T17:29:29.684Z,71.60
2018-05-27T17:31:58.745Z,73.00
2018-05-27T17:34:27.062Z,73.00
2018-05-27T17:36:55.414Z,73.50
2018-05-27T17:39:24.505Z,74.70
2018-05-27T17:41:52.788Z,74.50
2018-05-27T17:44:21.073Z,75.20
2018-05-27T17:46:49.400Z,75.10
2018-05-27T17:49:17.729Z,75.80
2018-05-27T17:51:46.866Z,76.60
2018-05-27T17:54:16.083Z,76.70
2018-05-27T17:56:44.549Z,76.50
2018-05-27T17:59:13.712Z,76.80
2018-05-27T18:01:42.295Z,76.80
2018-05-27T18:04:10.638Z,77.60
2018-05-27T18:06:38.999Z,77.80
2018-05-27T18:09:08.072Z,79.10
2018-05-27T18:11:36.401Z,79.00
2018-05-27T18:14:04.708Z,78.80
2018-05-27T18:16:33.358Z,79.90
2018-05-27T18:19:01.710Z,79.20
2018-05-27T18:21:30.060Z,78.60
2018-05-27T18:23:59.138Z,79.10
2018-05-27T18:26:27.539Z,79.00
2018-05-27T18:28:55.827Z,79.40
2018-05-27T18:31:24.170Z,79.70
2018-05-27T18:33:52.513Z,79.80
2018-05-27T18:36:21.090Z,79.70
2018-05-27T18:38:49.411Z,79.80
2018-05-27T18:41:17.814Z,79.90
2018-05-27T18:43:47.094Z,80.20
2018-05-27T18:46:15.578Z,80.10
2018-05-27T18:48:44.129Z,79.90
2018-05-27T18:51:14.116Z,80.00
2018-05-27T18:53:42.677Z,79.90
2018-05-27T18:56:11.758Z,80.10
2018-05-27T18:58:40.086Z,79.90
2018-05-27T19:01:08.689Z,80.40
2018-05-27T19:03:36.994Z,80.70
2018-05-27T19:06:05.490Z,81.50
2018-05-27T19:08:34.659Z,80.30
2018-05-27T19:11:03.963Z,80.30
2018-05-27T19:13:32.360Z,80.20
2018-05-27T19:16:00.637Z,80.20
2018-05-27T19:18:28.935Z,80.50
2018-05-27T19:20:57.352Z,81.30
2018-05-27T19:23:25.651Z,81.40
2018-05-27T19:25:53.974Z,81.00
2018-05-27T19:28:22.381Z,81.00
2018-05-27T19:30:50.674Z,81.00
2018-05-27T19:33:18.956Z,81.50
2018-05-27T19:35:47.353Z,81.40
2018-05-27T19:38:15.869Z,81.20
2018-05-27T19:40:44.341Z,81.60
2018-05-27T19:43:12.808Z,81.70
2018-05-27T19:45:41.108Z,81.50
2018-05-27T19:48:09.603Z,81.50
2018-05-27T19:50:37.903Z,81.50
2018-05-27T19:53:06.200Z,81.60
2018-05-27T19:55:34.622Z,82.00
2018-05-27T19:58:02.937Z,82.50
2018-05-27T20:00:31.266Z,82.90
2018-05-27T20:03:00.396Z,82.80
2018-05-27T20:05:28.778Z,82.80
2018-05-27T20:07:57.090Z,83.20
2018-05-27T20:10:26.370Z,83.60
2018-05-27T20:12:54.658Z,83.60
2018-05-27T20:15:22.950Z,84.30
2018-05-27T20:17:51.381Z,84.40
2018-05-27T20:20:19.700Z,84.40
2018-05-27T20:22:48.076Z,84.60
2018-05-27T20:25:16.361Z,84.40
2018-05-27T20:27:44.734Z,84.40
2018-05-27T20:30:13.123Z,84.40
2018-05-27T20:32:42.322Z,85.40
2018-05-27T20:35:10.724Z,85.40
2018-05-27T20:37:39.026Z,85.90
2018-05-27T20:40:07.616Z,86.30
2018-05-27T20:42:35.911Z,85.70
2018-05-27T20:45:04.368Z,86.00
2018-05-27T20:47:32.728Z,86.50
2018-05-27T20:50:01.199Z,87.40
2018-05-27T20:52:30.237Z,88.30
2018-05-27T20:54:58.698Z,88.20
2018-05-27T20:57:27.838Z,88.20
2018-05-27T20:59:56.910Z,88.50
2018-05-27T21:02:25.312Z,88.40
2018-05-27T21:04:53.614Z,88.80
2018-05-27T21:07:21.928Z,88.90
2018-05-27T21:09:50.261Z,88.80
2018-05-27T21:12:19.322Z,89.40
2018-05-27T21:14:47.640Z,89.40
2018-05-27T21:17:16.004Z,89.70
2018-05-27T21:19:44.337Z,90.10
2018-05-27T21:22:12.697Z,90.30
2018-05-27T21:24:41.876Z,90.20
2018-05-27T21:27:11.264Z,90.20
2018-05-27T21:29:39.621Z,90.30
2018-05-27T21:32:08.010Z,90.40
2018-05-27T21:34:36.344Z,90.30
2018-05-27T21:37:05.405Z,90.30
2018-05-27T21:39:33.739Z,90.30
2018-05-27T21:42:02.028Z,90.50
2018-05-27T21:44:30.317Z,90.50
2018-05-27T21:46:58.648Z,90.80
2018-05-27T21:49:26.953Z,90.90
2018-05-27T21:51:55.243Z,90.90
2018-05-27T21:54:25.085Z,91.40
2018-05-27T21:56:53.377Z,91.30
2018-05-27T21:59:21.700Z,91.30
2018-05-27T22:01:50.076Z,91.40
2018-05-27T22:04:18.412Z,91.50
2018-05-27T22:06:46.697Z,91.70
2018-05-27T22:09:16.501Z,92.00
2018-05-27T22:11:44.886Z,92.00
2018-05-27T22:14:13.285Z,92.00
2018-05-27T22:16:41.672Z,92.10
2018-05-27T22:19:10.770Z,92.00
2018-05-27T22:21:39.112Z,92.00
2018-05-27T22:24:07.410Z,91.90
2018-05-27T22:26:35.759Z,91.80
2018-05-27T22:29:04.065Z,92.00
2018-05-27T22:31:32.560Z,92.20
2018-05-27T22:34:00.972Z,92.20
2018-05-27T22:36:29.501Z,92.20
2018-05-27T22:38:57.820Z,92.30
2018-05-27T22:41:26.871Z,92.40
2018-05-27T22:43:55.195Z,92.40
2018-05-27T22:46:23.488Z,92.70
2018-05-27T22:48:51.813Z,92.70
2018-05-27T22:51:20.222Z,92.80
2018-05-27T22:53:48.512Z,92.50
2018-05-27T22:56:16.818Z,92.90
2018-05-27T22:58:45.238Z,92.70
2018-05-27T23:01:13.750Z,92.90
2018-05-27T23:03:42.080Z,93.00
2018-05-27T23:06:10.458Z,93.10
2018-05-27T23:08:38.741Z,93.20
2018-05-27T23:11:07.068Z,93.10
2018-05-27T23:13:35.449Z,92.80
2018-05-27T23:16:03.749Z,92.90
2018-05-27T23:18:32.076Z,93.00
2018-05-27T23:21:00.387Z,93.20
2018-05-27T23:23:29.684Z,93.40
2018-05-27T23:25:58.024Z,93.40
2018-05-27T23:28:26.388Z,93.80
2018-05-27T23:30:54.792Z,93.50
2018-05-27T23:33:23.086Z,93.40
2018-05-27T23:35:51.484Z,93.60
2018-05-27T23:38:19.809Z,93.80
2018-05-27T23:40:48.105Z,93.90
2018-05-27T23:43:16.713Z,93.90
2018-05-27T23:45:45.000Z,93.90
2018-05-27T23:48:13.317Z,93.70
2018-05-27T23:50:43.660Z,93.50
2018-05-27T23:53:11.974Z,93.50
2018-05-27T23:55:40.297Z,93.40
2018-05-27T23:58:09.594Z,93.50
